sensor_id;sensor_type;location;lat;lon;timestamp;temperature;humidity
24091;DHT22;12272;52.426;17.100;2024-03-02T00:01:20;10.60;99.90
24091;DHT22;12272;52.426;17.100;2024-03-02T00:06:24;10.70;99.90
24091;DHT22;12272;52.426;17.100;2024-03-02T00:11:27;10.50;99.90
24091;DHT22;12272;52.426;17.100;2024-03-02T00:16:33;10.70;99.90
24091;DHT22;12272;52.426;17.100;2024-03-02T00:21:36;10.70;99.90
24091;DHT22;12272;52.426;17.100;2024-03-02T00:26:38;11.00;99.90
24091;DHT22;12272;52.426;17.100;2024-03-02T00:31:41;11.30;99.90
24091;DHT22;12272;52.426;17.100;2024-03-02T00:36:44;11.30;99.90
24091;DHT22;12272;52.426;17.100;2024-03-02T00:41:47;11.30;99.90
24091;DHT22;12272;52.426;17.100;2024-03-02T00:46:50;11.80;99.90
24091;DHT22;12272;52.426;17.100;2024-03-02T00:51:53;11.80;99.90
24091;DHT22;12272;52.426;17.100;2024-03-02T00:56:57;11.70;99.90
24091;DHT22;12272;52.426;17.100;2024-03-02T01:01:59;11.70;99.90
24091;DHT22;12272;52.426;17.100;2024-03-02T01:07:02;11.70;99.90
24091;DHT22;12272;52.426;17.100;2024-03-02T01:12:04;11.70;99.90
24091;DHT22;12272;52.426;17.100;2024-03-02T01:17:07;11.70;99.90
24091;DHT22;12272;52.426;17.100;2024-03-02T01:22:10;11.80;99.90
24091;DHT22;12272;52.426;17.100;2024-03-02T01:27:12;11.80;99.90
24091;DHT22;12272;52.426;17.100;2024-03-02T01:32:15;11.80;99.90
24091;DHT22;12272;52.426;17.100;2024-03-02T01:37:18;11.80;99.90
24091;DHT22;12272;52.426;17.100;2024-03-02T01:42:20;11.70;99.90
24091;DHT22;12272;52.426;17.100;2024-03-02T01:47:23;11.70;99.90
24091;DHT22;12272;52.426;17.100;2024-03-02T01:52:26;11.40;99.90
24091;DHT22;12272;52.426;17.100;2024-03-02T01:57:29;11.30;99.90
24091;DHT22;12272;52.426;17.100;2024-03-02T02:02:32;11.00;99.90
24091;DHT22;12272;52.426;17.100;2024-03-02T02:07:35;10.90;99.90
24091;DHT22;12272;52.426;17.100;2024-03-02T02:12:38;10.70;99.90
24091;DHT22;12272;52.426;17.100;2024-03-02T02:17:41;10.90;99.90
24091;DHT22;12272;52.426;17.100;2024-03-02T02:23:00;10.90;99.90
24091;DHT22;12272;52.426;17.100;2024-03-02T02:28:03;10.90;99.90
24091;DHT22;12272;52.426;17.100;2024-03-02T02:33:05;11.00;99.90
24091;DHT22;12272;52.426;17.100;2024-03-02T02:38:08;11.00;99.90
24091;DHT22;12272;52.426;17.100;2024-03-02T02:43:11;11.00;99.90
24091;DHT22;12272;52.426;17.100;2024-03-02T02:48:14;11.20;99.90
24091;DHT22;12272;52.426;17.100;2024-03-02T02:53:17;11.20;99.90
24091;DHT22;12272;52.426;17.100;2024-03-02T02:58:19;11.40;99.90
24091;DHT22;12272;52.426;17.100;2024-03-02T03:03:22;11.50;99.90
24091;DHT22;12272;52.426;17.100;2024-03-02T03:08:24;11.40;99.90
24091;DHT22;12272;52.426;17.100;2024-03-02T03:13:27;11.70;99.90
24091;DHT22;12272;52.426;17.100;2024-03-02T03:18:29;11.50;99.90
24091;DHT22;12272;52.426;17.100;2024-03-02T03:23:32;11.40;99.90
24091;DHT22;12272;52.426;17.100;2024-03-02T03:28:34;11.40;99.90
24091;DHT22;12272;52.426;17.100;2024-03-02T03:33:37;11.10;99.90
24091;DHT22;12272;52.426;17.100;2024-03-02T03:38:39;11.20;99.90
24091;DHT22;12272;52.426;17.100;2024-03-02T03:43:42;11.20;99.90
24091;DHT22;12272;52.426;17.100;2024-03-02T03:48:44;11.10;99.90
24091;DHT22;12272;52.426;17.100;2024-03-02T03:53:47;11.00;99.90
24091;DHT22;12272;52.426;17.100;2024-03-02T03:58:49;10.90;99.90
24091;DHT22;12272;52.426;17.100;2024-03-02T04:03:52;10.80;99.90
24091;DHT22;12272;52.426;17.100;2024-03-02T04:08:56;10.40;99.90
24091;DHT22;12272;52.426;17.100;2024-03-02T04:13:59;10.40;99.90
24091;DHT22;12272;52.426;17.100;2024-03-02T04:19:01;10.20;99.90
24091;DHT22;12272;52.426;17.100;2024-03-02T04:24:04;10.10;99.90
24091;DHT22;12272;52.426;17.100;2024-03-02T04:29:07;10.10;99.90
24091;DHT22;12272;52.426;17.100;2024-03-02T04:34:10;9.90;99.90
24091;DHT22;12272;52.426;17.100;2024-03-02T04:39:13;9.80;99.90
24091;DHT22;12272;52.426;17.100;2024-03-02T04:44:15;9.90;99.90
24091;DHT22;12272;52.426;17.100;2024-03-02T04:49:18;9.80;99.90
24091;DHT22;12272;52.426;17.100;2024-03-02T04:54:21;9.70;99.90
24091;DHT22;12272;52.426;17.100;2024-03-02T04:59:23;9.70;99.90
24091;DHT22;12272;52.426;17.100;2024-03-02T05:04:26;9.70;99.90
24091;DHT22;12272;52.426;17.100;2024-03-02T05:09:28;9.50;99.90
24091;DHT22;12272;52.426;17.100;2024-03-02T05:14:31;9.50;99.90
24091;DHT22;12272;52.426;17.100;2024-03-02T05:19:33;9.40;99.90
24091;DHT22;12272;52.426;17.100;2024-03-02T05:24:36;9.30;99.90
24091;DHT22;12272;52.426;17.100;2024-03-02T05:29:39;9.30;99.90
24091;DHT22;12272;52.426;17.100;2024-03-02T05:34:42;9.00;99.90
24091;DHT22;12272;52.426;17.100;2024-03-02T05:39:44;8.90;99.90
24091;DHT22;12272;52.426;17.100;2024-03-02T05:44:47;9.00;99.90
24091;DHT22;12272;52.426;17.100;2024-03-02T05:49:50;8.90;99.90
24091;DHT22;12272;52.426;17.100;2024-03-02T05:54:52;8.90;99.90
24091;DHT22;12272;52.426;17.100;2024-03-02T05:59:56;8.80;99.90
24091;DHT22;12272;52.426;17.100;2024-03-02T06:04:59;8.90;99.90
24091;DHT22;12272;52.426;17.100;2024-03-02T06:10:01;8.90;99.90
24091;DHT22;12272;52.426;17.100;2024-03-02T06:15:04;8.90;99.90
24091;DHT22;12272;52.426;17.100;2024-03-02T06:20:07;8.80;99.90
24091;DHT22;12272;52.426;17.100;2024-03-02T06:25:11;9.00;99.90
24091;DHT22;12272;52.426;17.100;2024-03-02T06:30:13;8.90;99.90
24091;DHT22;12272;52.426;17.100;2024-03-02T06:35:16;9.00;99.90
24091;DHT22;12272;52.426;17.100;2024-03-02T06:40:18;9.00;99.90
24091;DHT22;12272;52.426;17.100;2024-03-02T06:45:21;9.10;99.90
24091;DHT22;12272;52.426;17.100;2024-03-02T06:50:23;9.10;99.90
24091;DHT22;12272;52.426;17.100;2024-03-02T06:55:26;8.80;99.90
24091;DHT22;12272;52.426;17.100;2024-03-02T07:00:28;8.60;99.90
24091;DHT22;12272;52.426;17.100;2024-03-02T07:05:31;8.50;99.90
24091;DHT22;12272;52.426;17.100;2024-03-02T07:10:33;8.50;99.90
24091;DHT22;12272;52.426;17.100;2024-03-02T07:15:36;8.70;99.90
24091;DHT22;12272;52.426;17.100;2024-03-02T07:21:17;8.80;99.90
24091;DHT22;12272;52.426;17.100;2024-03-02T07:26:19;9.00;99.90
24091;DHT22;12272;52.426;17.100;2024-03-02T07:31:25;9.20;99.90
24091;DHT22;12272;52.426;17.100;2024-03-02T07:36:27;9.40;99.90
24091;DHT22;12272;52.426;17.100;2024-03-02T07:41:30;9.40;99.90
24091;DHT22;12272;52.426;17.100;2024-03-02T07:46:33;9.50;99.90
24091;DHT22;12272;52.426;17.100;2024-03-02T07:51:35;9.60;99.90
24091;DHT22;12272;52.426;17.100;2024-03-02T07:56:40;9.70;99.90
24091;DHT22;12272;52.426;17.100;2024-03-02T08:01:43;9.80;99.90
24091;DHT22;12272;52.426;17.100;2024-03-02T08:06:46;9.90;99.90
24091;DHT22;12272;52.426;17.100;2024-03-02T08:11:49;10.10;99.90
24091;DHT22;12272;52.426;17.100;2024-03-02T08:16:52;10.30;99.90
24091;DHT22;12272;52.426;17.100;2024-03-02T08:21:54;10.50;99.90
24091;DHT22;12272;52.426;17.100;2024-03-02T08:26:59;10.60;99.90
24091;DHT22;12272;52.426;17.100;2024-03-02T08:32:01;10.70;99.90
24091;DHT22;12272;52.426;17.100;2024-03-02T08:37:04;10.80;99.90
24091;DHT22;12272;52.426;17.100;2024-03-02T08:42:07;10.90;99.90
24091;DHT22;12272;52.426;17.100;2024-03-02T08:47:10;11.10;99.90
24091;DHT22;12272;52.426;17.100;2024-03-02T08:52:12;11.30;99.90
24091;DHT22;12272;52.426;17.100;2024-03-02T08:57:15;11.50;99.90
24091;DHT22;12272;52.426;17.100;2024-03-02T09:02:17;11.70;99.90
24091;DHT22;12272;52.426;17.100;2024-03-02T09:07:20;12.10;99.90
24091;DHT22;12272;52.426;17.100;2024-03-02T09:12:23;12.30;99.90
24091;DHT22;12272;52.426;17.100;2024-03-02T09:17:26;12.50;99.90
24091;DHT22;12272;52.426;17.100;2024-03-02T09:22:28;12.70;99.90
24091;DHT22;12272;52.426;17.100;2024-03-02T09:27:30;13.00;99.90
24091;DHT22;12272;52.426;17.100;2024-03-02T09:32:33;13.00;99.90
24091;DHT22;12272;52.426;17.100;2024-03-02T09:37:36;13.20;99.90
24091;DHT22;12272;52.426;17.100;2024-03-02T09:42:39;13.20;99.90
24091;DHT22;12272;52.426;17.100;2024-03-02T09:47:42;13.30;99.90
24091;DHT22;12272;52.426;17.100;2024-03-02T09:52:50;13.50;99.90
24091;DHT22;12272;52.426;17.100;2024-03-02T09:57:53;13.60;99.90
24091;DHT22;12272;52.426;17.100;2024-03-02T10:02:55;13.90;99.90
24091;DHT22;12272;52.426;17.100;2024-03-02T10:08:02;14.10;99.90
24091;DHT22;12272;52.426;17.100;2024-03-02T10:13:06;14.10;99.90
24091;DHT22;12272;52.426;17.100;2024-03-02T10:18:10;14.30;99.90
24091;DHT22;12272;52.426;17.100;2024-03-02T10:23:15;14.50;99.90
24091;DHT22;12272;52.426;17.100;2024-03-02T10:28:18;14.70;99.90
24091;DHT22;12272;52.426;17.100;2024-03-02T10:33:21;14.70;99.90
24091;DHT22;12272;52.426;17.100;2024-03-02T10:38:25;14.70;99.90
24091;DHT22;12272;52.426;17.100;2024-03-02T10:43:27;14.70;99.90
24091;DHT22;12272;52.426;17.100;2024-03-02T10:48:31;14.70;99.90
24091;DHT22;12272;52.426;17.100;2024-03-02T10:53:35;14.70;99.90
24091;DHT22;12272;52.426;17.100;2024-03-02T10:58:37;14.80;99.90
24091;DHT22;12272;52.426;17.100;2024-03-02T11:03:41;14.90;99.90
24091;DHT22;12272;52.426;17.100;2024-03-02T11:08:47;15.00;99.90
24091;DHT22;12272;52.426;17.100;2024-03-02T11:13:53;14.90;99.90
24091;DHT22;12272;52.426;17.100;2024-03-02T11:18:57;14.70;99.90
24091;DHT22;12272;52.426;17.100;2024-03-02T11:34:38;15.40;99.90
24091;DHT22;12272;52.426;17.100;2024-03-02T11:39:43;15.80;99.90
24091;DHT22;12272;52.426;17.100;2024-03-02T11:44:48;15.80;99.90
24091;DHT22;12272;52.426;17.100;2024-03-02T11:49:51;15.90;99.90
24091;DHT22;12272;52.426;17.100;2024-03-02T11:54:54;15.80;99.90
24091;DHT22;12272;52.426;17.100;2024-03-02T11:59:57;15.80;99.90
24091;DHT22;12272;52.426;17.100;2024-03-02T12:05:03;15.80;99.90
24091;DHT22;12272;52.426;17.100;2024-03-02T12:10:06;15.90;99.90
24091;DHT22;12272;52.426;17.100;2024-03-02T12:15:09;15.70;99.90
24091;DHT22;12272;52.426;17.100;2024-03-02T12:20:12;15.70;99.90
24091;DHT22;12272;52.426;17.100;2024-03-02T12:25:15;15.80;99.90
24091;DHT22;12272;52.426;17.100;2024-03-02T12:30:18;15.90;99.90
24091;DHT22;12272;52.426;17.100;2024-03-02T12:35:21;15.70;99.90
24091;DHT22;12272;52.426;17.100;2024-03-02T12:40:24;15.20;99.90
24091;DHT22;12272;52.426;17.100;2024-03-02T12:45:27;14.90;99.90
24091;DHT22;12272;52.426;17.100;2024-03-02T12:50:30;14.80;99.90
24091;DHT22;12272;52.426;17.100;2024-03-02T12:55:33;14.80;99.90
24091;DHT22;12272;52.426;17.100;2024-03-02T13:00:37;14.70;99.90
24091;DHT22;12272;52.426;17.100;2024-03-02T13:05:40;14.70;99.90
24091;DHT22;12272;52.426;17.100;2024-03-02T13:10:43;14.50;99.90
24091;DHT22;12272;52.426;17.100;2024-03-02T13:15:46;14.40;99.90
24091;DHT22;12272;52.426;17.100;2024-03-02T13:20:49;14.50;99.90
24091;DHT22;12272;52.426;17.100;2024-03-02T13:25:51;14.60;99.90
24091;DHT22;12272;52.426;17.100;2024-03-02T13:30:54;14.70;99.90
24091;DHT22;12272;52.426;17.100;2024-03-02T13:35:56;14.60;99.90
24091;DHT22;12272;52.426;17.100;2024-03-02T13:40:59;14.60;99.90
24091;DHT22;12272;52.426;17.100;2024-03-02T13:46:03;14.60;99.90
24091;DHT22;12272;52.426;17.100;2024-03-02T13:51:06;14.50;99.90
24091;DHT22;12272;52.426;17.100;2024-03-02T13:56:08;14.50;99.90
24091;DHT22;12272;52.426;17.100;2024-03-02T14:01:11;14.50;99.90
24091;DHT22;12272;52.426;17.100;2024-03-02T14:06:15;14.40;99.90
24091;DHT22;12272;52.426;17.100;2024-03-02T14:11:18;14.30;99.90
24091;DHT22;12272;52.426;17.100;2024-03-02T14:16:21;14.30;99.90
24091;DHT22;12272;52.426;17.100;2024-03-02T14:21:24;14.20;99.90
24091;DHT22;12272;52.426;17.100;2024-03-02T14:26:26;14.10;99.90
24091;DHT22;12272;52.426;17.100;2024-03-02T14:31:30;14.00;99.90
24091;DHT22;12272;52.426;17.100;2024-03-02T14:36:33;14.00;99.90
24091;DHT22;12272;52.426;17.100;2024-03-02T14:41:37;13.90;99.90
24091;DHT22;12272;52.426;17.100;2024-03-02T14:46:39;13.70;99.90
24091;DHT22;12272;52.426;17.100;2024-03-02T14:51:44;13.60;99.90
24091;DHT22;12272;52.426;17.100;2024-03-02T14:56:47;13.50;99.90
24091;DHT22;12272;52.426;17.100;2024-03-02T15:01:50;13.40;99.90
24091;DHT22;12272;52.426;17.100;2024-03-02T15:06:53;13.40;99.90
24091;DHT22;12272;52.426;17.100;2024-03-02T15:11:56;13.20;99.90
24091;DHT22;12272;52.426;17.100;2024-03-02T15:16:59;13.10;99.90
24091;DHT22;12272;52.426;17.100;2024-03-02T15:22:01;13.00;99.90
24091;DHT22;12272;52.426;17.100;2024-03-02T15:27:05;13.20;99.90
24091;DHT22;12272;52.426;17.100;2024-03-02T15:32:10;13.40;99.90
24091;DHT22;12272;52.426;17.100;2024-03-02T15:37:13;13.40;99.90
24091;DHT22;12272;52.426;17.100;2024-03-02T15:42:15;13.30;99.90
24091;DHT22;12272;52.426;17.100;2024-03-02T15:47:18;13.30;99.90
24091;DHT22;12272;52.426;17.100;2024-03-02T15:52:20;13.30;99.90
24091;DHT22;12272;52.426;17.100;2024-03-02T15:57:24;13.20;99.90
24091;DHT22;12272;52.426;17.100;2024-03-02T16:02:27;13.10;99.90
24091;DHT22;12272;52.426;17.100;2024-03-02T16:07:29;12.90;99.90
24091;DHT22;12272;52.426;17.100;2024-03-02T16:12:32;13.00;99.90
24091;DHT22;12272;52.426;17.100;2024-03-02T16:17:35;12.70;99.90
24091;DHT22;12272;52.426;17.100;2024-03-02T16:22:38;12.60;99.90
24091;DHT22;12272;52.426;17.100;2024-03-02T16:27:40;12.60;99.90
24091;DHT22;12272;52.426;17.100;2024-03-02T16:32:47;12.70;99.90
24091;DHT22;12272;52.426;17.100;2024-03-02T16:37:50;12.70;99.90
24091;DHT22;12272;52.426;17.100;2024-03-02T16:42:53;12.60;99.90
24091;DHT22;12272;52.426;17.100;2024-03-02T16:47:56;12.60;99.90
24091;DHT22;12272;52.426;17.100;2024-03-02T16:52:58;12.70;99.90
24091;DHT22;12272;52.426;17.100;2024-03-02T16:58:01;12.60;99.90
24091;DHT22;12272;52.426;17.100;2024-03-02T17:03:04;12.60;99.90
24091;DHT22;12272;52.426;17.100;2024-03-02T17:08:08;12.60;99.90
24091;DHT22;12272;52.426;17.100;2024-03-02T17:13:10;12.60;99.90
24091;DHT22;12272;52.426;17.100;2024-03-02T17:18:12;12.50;99.90
24091;DHT22;12272;52.426;17.100;2024-03-02T17:23:15;12.60;99.90
24091;DHT22;12272;52.426;17.100;2024-03-02T17:28:21;12.70;99.90
24091;DHT22;12272;52.426;17.100;2024-03-02T17:33:24;12.80;99.90
24091;DHT22;12272;52.426;17.100;2024-03-02T17:38:26;12.70;99.90
24091;DHT22;12272;52.426;17.100;2024-03-02T17:43:30;12.60;99.90
24091;DHT22;12272;52.426;17.100;2024-03-02T17:48:32;12.60;99.90
24091;DHT22;12272;52.426;17.100;2024-03-02T17:53:36;12.80;99.90
24091;DHT22;12272;52.426;17.100;2024-03-02T17:58:38;12.60;99.90
24091;DHT22;12272;52.426;17.100;2024-03-02T18:03:41;12.50;99.90
24091;DHT22;12272;52.426;17.100;2024-03-02T18:08:43;12.50;99.90
24091;DHT22;12272;52.426;17.100;2024-03-02T18:13:46;12.40;99.90
24091;DHT22;12272;52.426;17.100;2024-03-02T18:18:48;12.30;99.90
24091;DHT22;12272;52.426;17.100;2024-03-02T18:23:52;12.00;99.90
24091;DHT22;12272;52.426;17.100;2024-03-02T18:28:54;12.10;99.90
24091;DHT22;12272;52.426;17.100;2024-03-02T18:33:57;11.90;99.90
24091;DHT22;12272;52.426;17.100;2024-03-02T18:38:59;11.70;99.90
24091;DHT22;12272;52.426;17.100;2024-03-02T18:44:02;11.60;99.90
24091;DHT22;12272;52.426;17.100;2024-03-02T18:49:08;11.40;99.90
24091;DHT22;12272;52.426;17.100;2024-03-02T18:54:11;11.30;99.90
24091;DHT22;12272;52.426;17.100;2024-03-02T18:59:14;11.10;99.90
24091;DHT22;12272;52.426;17.100;2024-03-02T19:04:16;11.40;99.90
24091;DHT22;12272;52.426;17.100;2024-03-02T19:09:20;11.10;99.90
24091;DHT22;12272;52.426;17.100;2024-03-02T19:14:23;11.00;99.90
24091;DHT22;12272;52.426;17.100;2024-03-02T19:19:25;10.60;99.90
24091;DHT22;12272;52.426;17.100;2024-03-02T19:24:28;10.70;99.90
24091;DHT22;12272;52.426;17.100;2024-03-02T19:29:31;10.40;99.90
